sensor_id;sensor_type;location;lat;lon;timestamp;P1;durP1;ratioP1;P2;durP2;ratioP2
5507;SDS011;2776;51.046;6.772;2023-04-25T00:00:19;11.43;;;4.60;;
5507;SDS011;2776;51.046;6.772;2023-04-25T00:02:46;11.73;;;5.07;;
5507;SDS011;2776;51.046;6.772;2023-04-25T00:05:13;13.47;;;5.33;;
5507;SDS011;2776;51.046;6.772;2023-04-25T00:07:41;14.50;;;6.00;;
5507;SDS011;2776;51.046;6.772;2023-04-25T00:10:09;13.40;;;5.30;;
5507;SDS011;2776;51.046;6.772;2023-04-25T00:12:36;14.10;;;5.27;;
5507;SDS011;2776;51.046;6.772;2023-04-25T00:15:04;9.53;;;4.97;;
5507;SDS011;2776;51.046;6.772;2023-04-25T00:17:31;10.63;;;4.90;;
5507;SDS011;2776;51.046;6.772;2023-04-25T00:19:59;14.97;;;4.73;;
5507;SDS011;2776;51.046;6.772;2023-04-25T00:22:29;12.67;;;4.87;;
5507;SDS011;2776;51.046;6.772;2023-04-25T00:24:56;12.57;;;5.20;;
5507;SDS011;2776;51.046;6.772;2023-04-25T00:27:26;13.63;;;5.60;;
5507;SDS011;2776;51.046;6.772;2023-04-25T00:29:53;13.67;;;5.00;;
5507;SDS011;2776;51.046;6.772;2023-04-25T00:32:19;12.10;;;4.90;;
5507;SDS011;2776;51.046;6.772;2023-04-25T00:34:46;10.37;;;5.17;;
5507;SDS011;2776;51.046;6.772;2023-04-25T00:37:13;11.13;;;4.87;;
5507;SDS011;2776;51.046;6.772;2023-04-25T00:39:40;11.33;;;5.13;;
5507;SDS011;2776;51.046;6.772;2023-04-25T00:42:06;14.30;;;5.13;;
5507;SDS011;2776;51.046;6.772;2023-04-25T00:44:35;12.03;;;5.23;;
5507;SDS011;2776;51.046;6.772;2023-04-25T00:47:03;9.77;;;4.93;;
5507;SDS011;2776;51.046;6.772;2023-04-25T00:49:30;10.43;;;5.07;;
5507;SDS011;2776;51.046;6.772;2023-04-25T00:51:57;14.27;;;5.17;;
5507;SDS011;2776;51.046;6.772;2023-04-25T00:54:24;9.17;;;5.10;;
5507;SDS011;2776;51.046;6.772;2023-04-25T00:56:51;11.60;;;5.50;;
5507;SDS011;2776;51.046;6.772;2023-04-25T00:59:18;9.10;;;4.63;;
5507;SDS011;2776;51.046;6.772;2023-04-25T01:01:47;14.10;;;5.17;;
5507;SDS011;2776;51.046;6.772;2023-04-25T01:04:14;11.43;;;4.70;;
5507;SDS011;2776;51.046;6.772;2023-04-25T01:06:40;15.40;;;5.60;;
5507;SDS011;2776;51.046;6.772;2023-04-25T01:09:07;13.97;;;5.13;;
5507;SDS011;2776;51.046;6.772;2023-04-25T01:11:34;14.50;;;6.43;;
5507;SDS011;2776;51.046;6.772;2023-04-25T01:14:01;12.83;;;5.13;;
5507;SDS011;2776;51.046;6.772;2023-04-25T01:16:28;14.53;;;5.20;;
5507;SDS011;2776;51.046;6.772;2023-04-25T01:18:56;11.27;;;5.30;;
5507;SDS011;2776;51.046;6.772;2023-04-25T01:21:24;9.97;;;5.40;;
5507;SDS011;2776;51.046;6.772;2023-04-25T01:23:53;13.57;;;5.37;;
5507;SDS011;2776;51.046;6.772;2023-04-25T01:26:20;16.47;;;6.10;;
5507;SDS011;2776;51.046;6.772;2023-04-25T01:28:48;14.43;;;5.63;;
5507;SDS011;2776;51.046;6.772;2023-04-25T01:31:15;10.97;;;5.40;;
5507;SDS011;2776;51.046;6.772;2023-04-25T01:33:44;13.23;;;5.10;;
5507;SDS011;2776;51.046;6.772;2023-04-25T01:36:11;10.77;;;4.73;;
5507;SDS011;2776;51.046;6.772;2023-04-25T01:38:41;15.90;;;5.80;;
5507;SDS011;2776;51.046;6.772;2023-04-25T01:41:08;18.00;;;6.33;;
5507;SDS011;2776;51.046;6.772;2023-04-25T01:43:35;17.13;;;5.93;;
5507;SDS011;2776;51.046;6.772;2023-04-25T01:46:02;10.60;;;5.37;;
5507;SDS011;2776;51.046;6.772;2023-04-25T01:48:29;15.20;;;5.50;;
5507;SDS011;2776;51.046;6.772;2023-04-25T01:50:56;9.47;;;5.57;;
5507;SDS011;2776;51.046;6.772;2023-04-25T01:53:23;15.73;;;5.17;;
5507;SDS011;2776;51.046;6.772;2023-04-25T01:55:52;14.10;;;4.90;;
5507;SDS011;2776;51.046;6.772;2023-04-25T01:58:19;11.50;;;4.63;;
5507;SDS011;2776;51.046;6.772;2023-04-25T02:00:46;11.40;;;4.70;;
5507;SDS011;2776;51.046;6.772;2023-04-25T02:03:12;11.70;;;4.87;;
5507;SDS011;2776;51.046;6.772;2023-04-25T02:05:39;13.30;;;5.23;;
5507;SDS011;2776;51.046;6.772;2023-04-25T02:08:07;10.80;;;4.87;;
5507;SDS011;2776;51.046;6.772;2023-04-25T02:10:34;8.23;;;4.67;;
5507;SDS011;2776;51.046;6.772;2023-04-25T02:13:03;9.53;;;5.07;;
5507;SDS011;2776;51.046;6.772;2023-04-25T02:15:30;13.33;;;5.60;;
5507;SDS011;2776;51.046;6.772;2023-04-25T02:17:57;12.13;;;5.50;;
5507;SDS011;2776;51.046;6.772;2023-04-25T02:20:25;11.40;;;4.40;;
5507;SDS011;2776;51.046;6.772;2023-04-25T02:22:52;11.20;;;4.67;;
5507;SDS011;2776;51.046;6.772;2023-04-25T02:25:19;9.63;;;4.17;;
5507;SDS011;2776;51.046;6.772;2023-04-25T02:27:46;11.47;;;4.70;;
5507;SDS011;2776;51.046;6.772;2023-04-25T02:30:14;10.30;;;4.53;;
5507;SDS011;2776;51.046;6.772;2023-04-25T02:32:41;9.33;;;4.70;;
5507;SDS011;2776;51.046;6.772;2023-04-25T02:35:08;8.80;;;4.67;;
5507;SDS011;2776;51.046;6.772;2023-04-25T02:37:36;13.13;;;4.67;;
5507;SDS011;2776;51.046;6.772;2023-04-25T02:40:05;10.80;;;4.53;;
5507;SDS011;2776;51.046;6.772;2023-04-25T02:42:33;12.73;;;5.03;;
5507;SDS011;2776;51.046;6.772;2023-04-25T02:45:00;8.87;;;5.00;;
5507;SDS011;2776;51.046;6.772;2023-04-25T02:47:28;11.87;;;4.77;;
5507;SDS011;2776;51.046;6.772;2023-04-25T02:49:55;9.30;;;4.63;;
5507;SDS011;2776;51.046;6.772;2023-04-25T02:52:21;11.30;;;4.50;;
5507;SDS011;2776;51.046;6.772;2023-04-25T02:54:48;18.80;;;5.10;;
5507;SDS011;2776;51.046;6.772;2023-04-25T02:57:15;10.90;;;5.23;;
5507;SDS011;2776;51.046;6.772;2023-04-25T02:59:42;10.10;;;5.20;;
5507;SDS011;2776;51.046;6.772;2023-04-25T03:02:09;7.97;;;4.60;;
5507;SDS011;2776;51.046;6.772;2023-04-25T03:04:37;11.37;;;4.97;;
5507;SDS011;2776;51.046;6.772;2023-04-25T03:07:04;10.83;;;4.67;;
5507;SDS011;2776;51.046;6.772;2023-04-25T03:09:31;8.60;;;4.73;;
5507;SDS011;2776;51.046;6.772;2023-04-25T03:11:58;14.07;;;4.90;;
5507;SDS011;2776;51.046;6.772;2023-04-25T03:14:25;12.70;;;5.00;;
5507;SDS011;2776;51.046;6.772;2023-04-25T03:16:52;7.97;;;4.83;;
5507;SDS011;2776;51.046;6.772;2023-04-25T03:19:18;11.23;;;5.27;;
5507;SDS011;2776;51.046;6.772;2023-04-25T03:21:46;10.93;;;5.00;;
5507;SDS011;2776;51.046;6.772;2023-04-25T03:24:13;12.17;;;5.63;;
5507;SDS011;2776;51.046;6.772;2023-04-25T03:26:40;10.20;;;5.40;;
5507;SDS011;2776;51.046;6.772;2023-04-25T03:29:07;11.60;;;6.00;;
5507;SDS011;2776;51.046;6.772;2023-04-25T03:31:34;10.13;;;5.13;;
5507;SDS011;2776;51.046;6.772;2023-04-25T03:34:01;9.67;;;5.37;;
5507;SDS011;2776;51.046;6.772;2023-04-25T03:36:27;10.63;;;5.20;;
5507;SDS011;2776;51.046;6.772;2023-04-25T03:38:55;8.07;;;4.80;;
5507;SDS011;2776;51.046;6.772;2023-04-25T03:41:22;11.40;;;4.97;;
5507;SDS011;2776;51.046;6.772;2023-04-25T03:43:49;9.67;;;5.10;;
5507;SDS011;2776;51.046;6.772;2023-04-25T03:46:15;10.23;;;5.30;;
5507;SDS011;2776;51.046;6.772;2023-04-25T03:48:42;9.70;;;5.03;;
5507;SDS011;2776;51.046;6.772;2023-04-25T03:51:09;9.73;;;5.27;;
5507;SDS011;2776;51.046;6.772;2023-04-25T03:53:35;15.10;;;6.30;;
5507;SDS011;2776;51.046;6.772;2023-04-25T03:56:04;13.83;;;6.43;;
5507;SDS011;2776;51.046;6.772;2023-04-25T03:58:31;11.30;;;5.67;;
5507;SDS011;2776;51.046;6.772;2023-04-25T04:00:58;12.67;;;6.47;;
5507;SDS011;2776;51.046;6.772;2023-04-25T04:03:25;12.70;;;5.73;;
5507;SDS011;2776;51.046;6.772;2023-04-25T04:05:51;15.03;;;6.10;;
5507;SDS011;2776;51.046;6.772;2023-04-25T04:08:18;13.43;;;5.70;;
5507;SDS011;2776;51.046;6.772;2023-04-25T04:10:45;15.50;;;5.97;;
5507;SDS011;2776;51.046;6.772;2023-04-25T04:13:13;10.33;;;5.77;;
5507;SDS011;2776;51.046;6.772;2023-04-25T04:15:40;9.17;;;5.57;;
5507;SDS011;2776;51.046;6.772;2023-04-25T04:18:06;17.37;;;6.17;;
5507;SDS011;2776;51.046;6.772;2023-04-25T04:20:33;11.03;;;6.20;;
5507;SDS011;2776;51.046;6.772;2023-04-25T04:23:00;15.23;;;5.90;;
5507;SDS011;2776;51.046;6.772;2023-04-25T04:25:27;9.40;;;5.50;;
5507;SDS011;2776;51.046;6.772;2023-04-25T04:27:55;16.77;;;5.30;;
5507;SDS011;2776;51.046;6.772;2023-04-25T04:30:23;12.20;;;5.10;;
5507;SDS011;2776;51.046;6.772;2023-04-25T04:32:50;12.23;;;6.13;;
5507;SDS011;2776;51.046;6.772;2023-04-25T04:35:17;14.30;;;5.90;;
5507;SDS011;2776;51.046;6.772;2023-04-25T04:37:44;13.83;;;5.17;;
5507;SDS011;2776;51.046;6.772;2023-04-25T04:40:11;13.67;;;5.07;;
5507;SDS011;2776;51.046;6.772;2023-04-25T04:42:40;10.23;;;5.80;;
5507;SDS011;2776;51.046;6.772;2023-04-25T04:45:07;16.20;;;5.50;;
5507;SDS011;2776;51.046;6.772;2023-04-25T04:47:36;14.17;;;5.67;;
5507;SDS011;2776;51.046;6.772;2023-04-25T04:50:04;12.93;;;6.13;;
5507;SDS011;2776;51.046;6.772;2023-04-25T04:52:32;15.50;;;5.67;;
5507;SDS011;2776;51.046;6.772;2023-04-25T04:54:58;12.30;;;5.43;;
5507;SDS011;2776;51.046;6.772;2023-04-25T04:57:25;14.33;;;5.80;;
5507;SDS011;2776;51.046;6.772;2023-04-25T04:59:53;13.60;;;5.23;;
5507;SDS011;2776;51.046;6.772;2023-04-25T05:02:20;12.97;;;5.63;;
5507;SDS011;2776;51.046;6.772;2023-04-25T05:04:48;12.47;;;5.90;;
5507;SDS011;2776;51.046;6.772;2023-04-25T05:07:16;13.53;;;5.63;;
5507;SDS011;2776;51.046;6.772;2023-04-25T05:09:43;13.67;;;5.40;;
5507;SDS011;2776;51.046;6.772;2023-04-25T05:12:10;10.13;;;5.80;;
5507;SDS011;2776;51.046;6.772;2023-04-25T05:14:37;14.30;;;5.03;;
5507;SDS011;2776;51.046;6.772;2023-04-25T05:17:03;18.03;;;5.77;;
5507;SDS011;2776;51.046;6.772;2023-04-25T05:19:33;11.53;;;4.90;;
5507;SDS011;2776;51.046;6.772;2023-04-25T05:22:01;17.47;;;5.27;;
5507;SDS011;2776;51.046;6.772;2023-04-25T05:24:28;11.57;;;4.63;;
5507;SDS011;2776;51.046;6.772;2023-04-25T05:26:55;14.03;;;4.90;;
5507;SDS011;2776;51.046;6.772;2023-04-25T05:29:22;15.07;;;5.77;;
5507;SDS011;2776;51.046;6.772;2023-04-25T05:31:49;15.03;;;5.20;;
5507;SDS011;2776;51.046;6.772;2023-04-25T05:34:15;11.93;;;4.83;;
5507;SDS011;2776;51.046;6.772;2023-04-25T05:36:42;13.13;;;5.20;;
5507;SDS011;2776;51.046;6.772;2023-04-25T05:39:10;11.57;;;4.90;;
5507;SDS011;2776;51.046;6.772;2023-04-25T05:41:37;14.83;;;5.73;;
5507;SDS011;2776;51.046;6.772;2023-04-25T05:44:04;9.70;;;3.50;;
5507;SDS011;2776;51.046;6.772;2023-04-25T05:46:31;14.43;;;4.00;;
5507;SDS011;2776;51.046;6.772;2023-04-25T05:48:58;10.07;;;4.17;;
5507;SDS011;2776;51.046;6.772;2023-04-25T05:51:25;12.90;;;4.23;;
5507;SDS011;2776;51.046;6.772;2023-04-25T05:53:52;5.70;;;3.37;;
5507;SDS011;2776;51.046;6.772;2023-04-25T05:56:20;9.07;;;3.80;;
5507;SDS011;2776;51.046;6.772;2023-04-25T05:58:47;8.73;;;3.67;;
5507;SDS011;2776;51.046;6.772;2023-04-25T06:01:14;14.93;;;6.40;;
5507;SDS011;2776;51.046;6.772;2023-04-25T06:03:40;12.47;;;4.20;;
5507;SDS011;2776;51.046;6.772;2023-04-25T06:06:08;10.50;;;3.67;;
5507;SDS011;2776;51.046;6.772;2023-04-25T06:08:35;11.70;;;3.90;;
5507;SDS011;2776;51.046;6.772;2023-04-25T06:11:02;18.67;;;3.90;;
5507;SDS011;2776;51.046;6.772;2023-04-25T06:13:31;11.30;;;3.60;;
5507;SDS011;2776;51.046;6.772;2023-04-25T06:15:57;9.07;;;3.47;;
5507;SDS011;2776;51.046;6.772;2023-04-25T06:18:24;11.70;;;4.37;;
5507;SDS011;2776;51.046;6.772;2023-04-25T06:20:51;12.63;;;5.10;;
5507;SDS011;2776;51.046;6.772;2023-04-25T06:23:18;10.47;;;3.83;;
5507;SDS011;2776;51.046;6.772;2023-04-25T06:25:44;8.97;;;3.67;;
5507;SDS011;2776;51.046;6.772;2023-04-25T06:28:11;10.87;;;3.53;;
5507;SDS011;2776;51.046;6.772;2023-04-25T06:30:39;14.03;;;4.27;;
5507;SDS011;2776;51.046;6.772;2023-04-25T06:33:06;11.80;;;3.87;;
5507;SDS011;2776;51.046;6.772;2023-04-25T06:35:34;7.90;;;3.60;;
5507;SDS011;2776;51.046;6.772;2023-04-25T06:38:00;14.03;;;6.10;;
5507;SDS011;2776;51.046;6.772;2023-04-25T06:40:27;10.60;;;4.60;;
5507;SDS011;2776;51.046;6.772;2023-04-25T06:42:54;12.37;;;4.13;;
5507;SDS011;2776;51.046;6.772;2023-04-25T06:45:21;13.03;;;3.47;;
5507;SDS011;2776;51.046;6.772;2023-04-25T06:47:49;11.30;;;3.67;;
5507;SDS011;2776;51.046;6.772;2023-04-25T06:50:15;8.70;;;3.30;;
5507;SDS011;2776;51.046;6.772;2023-04-25T06:52:42;12.13;;;3.50;;
5507;SDS011;2776;51.046;6.772;2023-04-25T06:55:09;10.00;;;3.90;;
5507;SDS011;2776;51.046;6.772;2023-04-25T06:57:35;12.00;;;3.80;;
5507;SDS011;2776;51.046;6.772;2023-04-25T07:00:03;9.40;;;3.47;;
5507;SDS011;2776;51.046;6.772;2023-04-25T07:02:33;18.67;;;7.13;;
5507;SDS011;2776;51.046;6.772;2023-04-25T07:05:01;8.63;;;3.80;;
5507;SDS011;2776;51.046;6.772;2023-04-25T07:10:10;12.43;;;3.30;;
5507;SDS011;2776;51.046;6.772;2023-04-25T07:12:55;8.53;;;3.47;;
5507;SDS011;2776;51.046;6.772;2023-04-25T07:18:30;16.57;;;5.60;;
5507;SDS011;2776;51.046;6.772;2023-04-25T07:20:58;7.93;;;2.97;;
5507;SDS011;2776;51.046;6.772;2023-04-25T07:23:24;11.10;;;3.20;;
5507;SDS011;2776;51.046;6.772;2023-04-25T07:25:51;13.20;;;3.53;;
5507;SDS011;2776;51.046;6.772;2023-04-25T07:28:18;9.07;;;2.73;;
5507;SDS011;2776;51.046;6.772;2023-04-25T07:30:45;9.47;;;2.60;;
5507;SDS011;2776;51.046;6.772;2023-04-25T07:33:12;11.50;;;3.50;;
5507;SDS011;2776;51.046;6.772;2023-04-25T07:35:38;7.93;;;2.77;;
5507;SDS011;2776;51.046;6.772;2023-04-25T07:38:06;12.10;;;3.93;;
5507;SDS011;2776;51.046;6.772;2023-04-25T07:40:35;8.20;;;2.60;;
5507;SDS011;2776;51.046;6.772;2023-04-25T07:43:02;13.27;;;4.00;;
5507;SDS011;2776;51.046;6.772;2023-04-25T07:45:28;11.17;;;3.03;;
5507;SDS011;2776;51.046;6.772;2023-04-25T07:47:55;7.20;;;2.80;;
5507;SDS011;2776;51.046;6.772;2023-04-25T07:50:22;8.37;;;2.90;;
5507;SDS011;2776;51.046;6.772;2023-04-25T07:52:49;10.73;;;2.90;;
5507;SDS011;2776;51.046;6.772;2023-04-25T07:55:17;6.87;;;3.37;;
5507;SDS011;2776;51.046;6.772;2023-04-25T07:57:43;12.30;;;3.23;;
5507;SDS011;2776;51.046;6.772;2023-04-25T08:00:10;11.67;;;2.93;;
5507;SDS011;2776;51.046;6.772;2023-04-25T08:02:38;9.90;;;2.90;;
5507;SDS011;2776;51.046;6.772;2023-04-25T08:05:05;9.57;;;3.00;;
5507;SDS011;2776;51.046;6.772;2023-04-25T08:07:33;10.23;;;2.63;;
5507;SDS011;2776;51.046;6.772;2023-04-25T08:10:00;8.37;;;2.73;;
5507;SDS011;2776;51.046;6.772;2023-04-25T08:12:28;11.77;;;2.73;;
5507;SDS011;2776;51.046;6.772;2023-04-25T08:14:54;6.17;;;2.30;;
5507;SDS011;2776;51.046;6.772;2023-04-25T08:17:21;10.33;;;2.80;;
5507;SDS011;2776;51.046;6.772;2023-04-25T08:19:48;9.23;;;2.70;;
5507;SDS011;2776;51.046;6.772;2023-04-25T08:22:15;6.50;;;2.13;;
5507;SDS011;2776;51.046;6.772;2023-04-25T08:24:42;7.77;;;3.37;;
5507;SDS011;2776;51.046;6.772;2023-04-25T08:27:08;9.20;;;3.50;;
5507;SDS011;2776;51.046;6.772;2023-04-25T08:29:37;8.40;;;2.77;;
5507;SDS011;2776;51.046;6.772;2023-04-25T08:32:04;8.40;;;2.67;;
5507;SDS011;2776;51.046;6.772;2023-04-25T08:34:31;7.37;;;2.40;;
5507;SDS011;2776;51.046;6.772;2023-04-25T08:36:58;9.17;;;2.27;;
5507;SDS011;2776;51.046;6.772;2023-04-25T08:39:24;12.07;;;2.93;;
5507;SDS011;2776;51.046;6.772;2023-04-25T08:41:51;12.13;;;3.10;;
5507;SDS011;2776;51.046;6.772;2023-04-25T08:44:19;6.33;;;2.33;;
5507;SDS011;2776;51.046;6.772;2023-04-25T08:46:48;8.93;;;2.30;;
5507;SDS011;2776;51.046;6.772;2023-04-25T08:49:15;6.87;;;2.10;;
5507;SDS011;2776;51.046;6.772;2023-04-25T08:51:44;11.77;;;2.87;;
5507;SDS011;2776;51.046;6.772;2023-04-25T08:54:12;9.30;;;2.50;;
5507;SDS011;2776;51.046;6.772;2023-04-25T08:56:40;10.73;;;4.83;;
5507;SDS011;2776;51.046;6.772;2023-04-25T08:59:09;7.23;;;2.20;;
5507;SDS011;2776;51.046;6.772;2023-04-25T09:01:37;6.27;;;2.37;;
5507;SDS011;2776;51.046;6.772;2023-04-25T09:04:05;7.53;;;2.83;;
5507;SDS011;2776;51.046;6.772;2023-04-25T09:06:32;10.77;;;2.43;;
5507;SDS011;2776;51.046;6.772;2023-04-25T09:09:01;3.60;;;1.80;;
5507;SDS011;2776;51.046;6.772;2023-04-25T09:11:30;5.77;;;1.80;;
5507;SDS011;2776;51.046;6.772;2023-04-25T09:14:10;7.63;;;2.07;;
5507;SDS011;2776;51.046;6.772;2023-04-25T09:16:52;9.03;;;2.20;;
5507;SDS011;2776;51.046;6.772;2023-04-25T09:19:26;8.63;;;2.10;;
5507;SDS011;2776;51.046;6.772;2023-04-25T09:21:54;6.73;;;2.10;;
5507;SDS011;2776;51.046;6.772;2023-04-25T09:24:29;7.97;;;2.27;;
5507;SDS011;2776;51.046;6.772;2023-04-25T09:26:57;8.00;;;3.03;;
5507;SDS011;2776;51.046;6.772;2023-04-25T09:29:28;5.93;;;1.87;;
5507;SDS011;2776;51.046;6.772;2023-04-25T09:32:09;8.10;;;1.60;;
5507;SDS011;2776;51.046;6.772;2023-04-25T09:34:47;7.33;;;1.63;;
5507;SDS011;2776;51.046;6.772;2023-04-25T09:37:19;7.87;;;3.33;;
5507;SDS011;2776;51.046;6.772;2023-04-25T09:39:47;8.37;;;2.00;;
5507;SDS011;2776;51.046;6.772;2023-04-25T09:42:14;7.70;;;1.70;;
5507;SDS011;2776;51.046;6.772;2023-04-25T09:44:45;7.53;;;2.20;;
5507;SDS011;2776;51.046;6.772;2023-04-25T09:47:13;8.67;;;1.80;;
5507;SDS011;2776;51.046;6.772;2023-04-25T09:49:40;4.67;;;1.60;;
5507;SDS011;2776;51.046;6.772;2023-04-25T09:52:12;6.60;;;1.60;;
5507;SDS011;2776;51.046;6.772;2023-04-25T09:54:41;5.37;;;1.73;;
5507;SDS011;2776;51.046;6.772;2023-04-25T09:57:09;7.03;;;1.80;;
5507;SDS011;2776;51.046;6.772;2023-04-25T09:59:38;7.57;;;2.10;;
5507;SDS011;2776;51.046;6.772;2023-04-25T10:02:08;4.67;;;1.70;;
5507;SDS011;2776;51.046;6.772;2023-04-25T10:04:36;7.77;;;2.63;;
5507;SDS011;2776;51.046;6.772;2023-04-25T10:07:05;6.10;;;1.40;;
5507;SDS011;2776;51.046;6.772;2023-04-25T10:09:35;4.73;;;1.70;;
5507;SDS011;2776;51.046;6.772;2023-04-25T10:12:04;6.57;;;2.33;;
5507;SDS011;2776;51.046;6.772;2023-04-25T10:14:32;4.27;;;1.70;;
5507;SDS011;2776;51.046;6.772;2023-04-25T10:16:59;7.10;;;1.57;;
5507;SDS011;2776;51.046;6.772;2023-04-25T10:19:26;4.27;;;1.83;;
5507;SDS011;2776;51.046;6.772;2023-04-25T10:21:55;3.63;;;1.50;;
5507;SDS011;2776;51.046;6.772;2023-04-25T10:24:29;6.70;;;1.93;;
5507;SDS011;2776;51.046;6.772;2023-04-25T10:26:57;7.80;;;1.67;;
5507;SDS011;2776;51.046;6.772;2023-04-25T10:29:25;2.73;;;1.20;;
5507;SDS011;2776;51.046;6.772;2023-04-25T10:31:52;5.13;;;1.53;;
5507;SDS011;2776;51.046;6.772;2023-04-25T10:34:19;3.77;;;1.40;;
5507;SDS011;2776;51.046;6.772;2023-04-25T10:36:51;4.53;;;1.63;;
5507;SDS011;2776;51.046;6.772;2023-04-25T10:39:22;3.70;;;1.33;;
5507;SDS011;2776;51.046;6.772;2023-04-25T10:41:53;6.00;;;1.90;;
5507;SDS011;2776;51.046;6.772;2023-04-25T10:44:23;8.30;;;1.70;;
5507;SDS011;2776;51.046;6.772;2023-04-25T10:46:54;5.67;;;1.40;;
5507;SDS011;2776;51.046;6.772;2023-04-25T10:49:31;3.37;;;1.20;;
5507;SDS011;2776;51.046;6.772;2023-04-25T10:52:15;3.17;;;1.40;;
5507;SDS011;2776;51.046;6.772;2023-04-25T10:54:46;6.47;;;3.20;;
5507;SDS011;2776;51.046;6.772;2023-04-25T10:57:26;5.67;;;1.87;;
5507;SDS011;2776;51.046;6.772;2023-04-25T10:59:56;7.83;;;1.40;;
5507;SDS011;2776;51.046;6.772;2023-04-25T11:02:25;6.07;;;1.70;;
5507;SDS011;2776;51.046;6.772;2023-04-25T11:04:52;4.60;;;1.87;;
5507;SDS011;2776;51.046;6.772;2023-04-25T11:07:22;4.67;;;2.30;;
5507;SDS011;2776;51.046;6.772;2023-04-25T11:09:54;4.97;;;1.57;;
5507;SDS011;2776;51.046;6.772;2023-04-25T11:12:21;4.83;;;1.40;;
5507;SDS011;2776;51.046;6.772;2023-04-25T11:14:58;2.60;;;1.60;;
5507;SDS011;2776;51.046;6.772;2023-04-25T11:17:26;4.63;;;1.27;;
5507;SDS011;2776;51.046;6.772;2023-04-25T11:19:54;3.53;;;1.03;;
5507;SDS011;2776;51.046;6.772;2023-04-25T11:22:22;2.87;;;1.20;;
5507;SDS011;2776;51.046;6.772;2023-04-25T11:24:48;4.13;;;1.30;;
5507;SDS011;2776;51.046;6.772;2023-04-25T11:27:15;4.83;;;3.20;;
5507;SDS011;2776;51.046;6.772;2023-04-25T11:29:42;3.07;;;1.43;;
5507;SDS011;2776;51.046;6.772;2023-04-25T11:32:10;5.57;;;1.30;;
5507;SDS011;2776;51.046;6.772;2023-04-25T11:34:37;6.63;;;1.57;;
5507;SDS011;2776;51.046;6.772;2023-04-25T11:37:03;2.23;;;1.17;;
5507;SDS011;2776;51.046;6.772;2023-04-25T11:39:31;3.57;;;1.00;;
5507;SDS011;2776;51.046;6.772;2023-04-25T11:41:58;4.03;;;1.10;;
5507;SDS011;2776;51.046;6.772;2023-04-25T11:44:26;3.87;;;1.30;;
5507;SDS011;2776;51.046;6.772;2023-04-25T11:46:52;4.27;;;1.30;;
5507;SDS011;2776;51.046;6.772;2023-04-25T11:49:20;5.47;;;1.40;;
5507;SDS011;2776;51.046;6.772;2023-04-25T11:51:49;4.30;;;1.27;;
5507;SDS011;2776;51.046;6.772;2023-04-25T11:54:16;3.00;;;1.30;;
5507;SDS011;2776;51.046;6.772;2023-04-25T11:56:43;6.50;;;1.60;;
5507;SDS011;2776;51.046;6.772;2023-04-25T11:59:11;3.33;;;1.17;;
5507;SDS011;2776;51.046;6.772;2023-04-25T12:01:39;3.30;;;1.20;;
5507;SDS011;2776;51.046;6.772;2023-04-25T12:04:10;6.33;;;1.83;;
5507;SDS011;2776;51.046;6.772;2023-04-25T12:06:39;6.20;;;1.50;;
5507;SDS011;2776;51.046;6.772;2023-04-25T12:09:08;8.80;;;2.53;;
5507;SDS011;2776;51.046;6.772;2023-04-25T12:11:45;3.23;;;1.50;;
5507;SDS011;2776;51.046;6.772;2023-04-25T12:14:20;6.17;;;1.73;;
5507;SDS011;2776;51.046;6.772;2023-04-25T12:16:49;4.60;;;1.10;;
5507;SDS011;2776;51.046;6.772;2023-04-25T12:19:16;2.90;;;1.40;;
5507;SDS011;2776;51.046;6.772;2023-04-25T12:21:45;5.83;;;1.70;;
5507;SDS011;2776;51.046;6.772;2023-04-25T12:24:13;3.73;;;1.40;;
5507;SDS011;2776;51.046;6.772;2023-04-25T12:26:47;4.67;;;1.57;;
5507;SDS011;2776;51.046;6.772;2023-04-25T12:29:15;3.43;;;1.30;;
5507;SDS011;2776;51.046;6.772;2023-04-25T12:31:43;5.13;;;1.53;;
5507;SDS011;2776;51.046;6.772;2023-04-25T12:34:10;6.37;;;1.80;;
5507;SDS011;2776;51.046;6.772;2023-04-25T12:36:37;4.63;;;1.47;;
5507;SDS011;2776;51.046;6.772;2023-04-25T12:39:05;3.90;;;1.40;;
5507;SDS011;2776;51.046;6.772;2023-04-25T12:41:32;3.30;;;1.60;;
5507;SDS011;2776;51.046;6.772;2023-04-25T12:44:00;4.97;;;1.77;;
5507;SDS011;2776;51.046;6.772;2023-04-25T12:46:26;4.03;;;1.60;;
5507;SDS011;2776;51.046;6.772;2023-04-25T12:48:53;3.30;;;1.90;;
5507;SDS011;2776;51.046;6.772;2023-04-25T12:51:21;6.93;;;1.97;;
5507;SDS011;2776;51.046;6.772;2023-04-25T12:53:49;1.87;;;1.23;;
5507;SDS011;2776;51.046;6.772;2023-04-25T12:56:18;5.83;;;1.70;;
5507;SDS011;2776;51.046;6.772;2023-04-25T12:58:45;3.13;;;1.30;;
5507;SDS011;2776;51.046;6.772;2023-04-25T13:01:13;4.37;;;1.50;;
5507;SDS011;2776;51.046;6.772;2023-04-25T13:03:39;3.00;;;1.00;;
5507;SDS011;2776;51.046;6.772;2023-04-25T13:06:06;4.23;;;1.23;;
5507;SDS011;2776;51.046;6.772;2023-04-25T13:08:33;2.77;;;1.30;;
5507;SDS011;2776;51.046;6.772;2023-04-25T13:11:01;3.07;;;1.33;;
5507;SDS011;2776;51.046;6.772;2023-04-25T13:13:30;3.87;;;2.00;;
5507;SDS011;2776;51.046;6.772;2023-04-25T13:15:57;5.57;;;1.93;;
5507;SDS011;2776;51.046;6.772;2023-04-25T13:18:24;2.07;;;0.90;;
5507;SDS011;2776;51.046;6.772;2023-04-25T13:20:51;2.00;;;0.87;;
5507;SDS011;2776;51.046;6.772;2023-04-25T13:23:18;7.63;;;5.70;;
5507;SDS011;2776;51.046;6.772;2023-04-25T13:25:45;2.47;;;1.10;;
5507;SDS011;2776;51.046;6.772;2023-04-25T13:28:11;3.10;;;1.10;;
5507;SDS011;2776;51.046;6.772;2023-04-25T13:30:40;3.17;;;1.10;;
5507;SDS011;2776;51.046;6.772;2023-04-25T13:33:06;3.17;;;1.37;;
5507;SDS011;2776;51.046;6.772;2023-04-25T13:35:34;1.43;;;0.97;;
5507;SDS011;2776;51.046;6.772;2023-04-25T13:38:01;1.20;;;0.80;;
5507;SDS011;2776;51.046;6.772;2023-04-25T13:40:28;3.07;;;1.23;;
5507;SDS011;2776;51.046;6.772;2023-04-25T13:42:55;1.80;;;0.93;;
5507;SDS011;2776;51.046;6.772;2023-04-25T13:45:22;2.40;;;1.00;;
5507;SDS011;2776;51.046;6.772;2023-04-25T13:47:50;3.00;;;1.07;;
5507;SDS011;2776;51.046;6.772;2023-04-25T13:50:17;3.00;;;2.20;;
5507;SDS011;2776;51.046;6.772;2023-04-25T13:52:44;2.50;;;1.00;;
5507;SDS011;2776;51.046;6.772;2023-04-25T13:55:11;2.13;;;1.70;;
5507;SDS011;2776;51.046;6.772;2023-04-25T13:57:37;1.67;;;0.70;;
5507;SDS011;2776;51.046;6.772;2023-04-25T14:00:04;3.67;;;0.90;;
5507;SDS011;2776;51.046;6.772;2023-04-25T14:02:33;2.37;;;0.67;;
5507;SDS011;2776;51.046;6.772;2023-04-25T14:05:01;1.63;;;0.70;;
5507;SDS011;2776;51.046;6.772;2023-04-25T14:07:29;2.47;;;1.10;;
5507;SDS011;2776;51.046;6.772;2023-04-25T14:09:56;3.73;;;1.30;;
5507;SDS011;2776;51.046;6.772;2023-04-25T14:12:23;3.33;;;0.80;;
5507;SDS011;2776;51.046;6.772;2023-04-25T14:14:50;4.17;;;1.47;;
5507;SDS011;2776;51.046;6.772;2023-04-25T14:17:17;2.83;;;1.17;;
5507;SDS011;2776;51.046;6.772;2023-04-25T14:19:44;2.83;;;1.03;;
5507;SDS011;2776;51.046;6.772;2023-04-25T14:22:14;4.43;;;1.67;;
5507;SDS011;2776;51.046;6.772;2023-04-25T14:24:41;6.97;;;1.50;;
5507;SDS011;2776;51.046;6.772;2023-04-25T14:27:07;2.17;;;0.97;;
5507;SDS011;2776;51.046;6.772;2023-04-25T14:29:35;2.97;;;1.17;;
5507;SDS011;2776;51.046;6.772;2023-04-25T14:32:01;6.93;;;4.23;;
5507;SDS011;2776;51.046;6.772;2023-04-25T14:34:30;4.47;;;1.20;;
5507;SDS011;2776;51.046;6.772;2023-04-25T14:36:56;3.93;;;1.23;;
5507;SDS011;2776;51.046;6.772;2023-04-25T14:39:25;4.13;;;1.63;;
5507;SDS011;2776;51.046;6.772;2023-04-25T14:41:51;7.17;;;1.20;;
5507;SDS011;2776;51.046;6.772;2023-04-25T14:44:18;2.83;;;1.03;;
5507;SDS011;2776;51.046;6.772;2023-04-25T14:46:45;4.73;;;1.30;;
5507;SDS011;2776;51.046;6.772;2023-04-25T14:49:12;4.30;;;1.07;;
5507;SDS011;2776;51.046;6.772;2023-04-25T14:51:39;4.10;;;1.30;;
5507;SDS011;2776;51.046;6.772;2023-04-25T14:54:06;4.17;;;1.03;;
5507;SDS011;2776;51.046;6.772;2023-04-25T14:56:34;4.60;;;1.93;;
5507;SDS011;2776;51.046;6.772;2023-04-25T14:59:01;2.57;;;0.90;;
5507;SDS011;2776;51.046;6.772;2023-04-25T15:01:27;4.80;;;1.20;;
5507;SDS011;2776;51.046;6.772;2023-04-25T15:03:54;4.63;;;1.50;;
5507;SDS011;2776;51.046;6.772;2023-04-25T15:06:22;3.10;;;1.10;;
5507;SDS011;2776;51.046;6.772;2023-04-25T15:08:51;2.33;;;1.10;;
5507;SDS011;2776;51.046;6.772;2023-04-25T15:11:18;1.70;;;1.13;;
5507;SDS011;2776;51.046;6.772;2023-04-25T15:13:48;5.00;;;1.53;;
5507;SDS011;2776;51.046;6.772;2023-04-25T15:16:15;3.47;;;1.07;;
5507;SDS011;2776;51.046;6.772;2023-04-25T15:18:41;3.70;;;1.43;;